Davao, Philippines
Current Conditions -  °F | °C
As of 2:00 PM on Sunday 26 Oct 2014 (Local Time) from RPMD Reporting Station
Broken Clouds Broken Clouds  
Wind Chill: 88°   Ceiling: 9000
Heat Index: 102°   Visibility: 4mi
Dew Point: 79°   Wind: 6mph
Humidity: 75%   Direction: 120°ESE
Pressure: 29.77"   Gusts: NA
Location:  7.11°N, 125.63°E
Report Text: RPMD 260600Z 12005KT 6000 BKN090 BKN290 31/26 Q1008 RMK A2977 CB NW QDS
Loading
Personal Weather Stations






























Interactive Weather Map
Tropical Storm Tracking
New forecast layout! Learn more

10-Day Weather Forecast

Advertisements
Track Severe Weather on mobile